Terminal Aerodrome Forecast
Issued by NWS Blacksburg, VA

Home | Current Version | Previous Version | Text Only | Print | Product List | Glossary On
Versions: 1 2 3 4 5 6 7 8 9 10 11 12 13
000
FTUS41 KRNK 180540
TAFDAN
TAF
KDAN 180540Z 1806/1906 07006KT P6SM BKN250
     FM181400 06008KT P6SM OVC250
     FM182300 05009KT P6SM BKN090 OVC150=

USA.gov is the U.S. government's official web portal to all federal, state and local government web resources and services.